Garrison, ND

8:03 AM CST on December 10, 2016 (GMT -0600)
Downtown Garrison, ND | | Change Station
Active Advisory: Wind Chill Advisory

Elev 1929 ft 47.65 °N, 101.41 °W | Updated 1 minute ago

Mostly Cloudy
Mostly Cloudy
-13.6 °F
Feels Like -14 °F
N
0.0
Wind Variable Wind from ENE

Today
High -- | Low -- °F
--% Chance of Precip.
Yesterday
High -- | Low -- °F
Precip. -- in
Pressure 30.32 in
Visibility 10.0 miles
Clouds Few 4100 ft
Windchill -14 °F
Dew Point -14 °F
Humidity 93%
Rainfall 0.00 in
Snow Depth Not available.
8:23 AM 4:53 PM
Waxing Gibbous, 84% visible
METAR KHZE 101355Z AUTO 00000KT 10SM FEW041 M28/M33 A3032 RMK AO2
Pressure 30.32 in
Visibility 10.0 miles
Clouds Few 4100 ft
Windchill -14 °F
Dew Point -14 °F
Humidity 93%
Rainfall 0.00 in
Snow Depth Not available.
8:23 AM 4:53 PM
Waxing Gibbous, 84% visible
METAR KHZE 101355Z AUTO 00000KT 10SM FEW041 M28/M33 A3032 RMK AO2

10-Day Weather Forecast

Almanac

Astronomy

Dec. 10, 2016 Rise Set
Actual Time
Civil Twilight
Nautical Twilight
Astronomical Twilight
Moon
Length of Visible Light
Length of Day
Tomorrow will be .
, % of the Moon is Illuminated

Today's Extremes

State Highs State Lows

Community

WunderPhotos

Upload Photos

1,956,549 photos uploaded!

WunderBlog® & News

Nearby

Air Quality

  Air Quality AQ Index Pollutant
Not available.

Snow Depth

Station Depth Elevation

Earthquake Activity

City Distance Mag. Time & Date
Minimum magnitude displayed is 2.5.

Coastal Water Temperatures

Place Temperature

Stations

Nearby Weather Stations

Station Location Temp. Windchill Dew Point Humidity Wind Precip. Elev Updated Type
                   

Watches & Warnings

Wind Chill Advisory
Issued: 3:05 AM MST Dec. 10, 2016 – National Weather Service

... Wind Chill Advisory remains in effect until noon CST /11 am
MST/ today...

* expect wind chills to range from 25 below zero to 40 below zero
this morning.

* The cold wind chills will cause frostbite in as little as 30
minutes to exposed skin.

Precautionary/preparedness actions...

Dress warmly and in layers if you need to be outdoors. Make sure
you wear a hat and gloves.



Cjs/KS